Overview Statistics Trail Chart Weather Telemetry Raw packets
 

This is the latest recevied weather packets stored in our database for station/object KE8WMS. If no packets are shown the sender has not sent any weather packets the latest 10 day(s).

<< 63 64 65 66 67 68 69 >>
Time Temp. Humidity Pressure Rain* Wind** Luminosity Snow
1777411115 21.11° C 61% 1007.7 hPa 0 mm - 449 W/m² -
1777410814 21.11° C 61% 1007.6 hPa 0 mm - 407 W/m² -
1777410513 21.67° C 61% 1007.6 hPa 0 mm - 446 W/m² -
1777410213 21.11° C 63% 1007.5 hPa 0 mm - 425 W/m² -
1777409908 21.11° C 62% 1007.7 hPa 0 mm - 478 W/m² -
1777409604 20.56° C 64% 1007.8 hPa 0 mm - 165 W/m² -
1777409299 20.56° C 63% 1007.7 hPa 0 mm - 151 W/m² -
1777408996 20.56° C 63% 1007.6 hPa 0 mm - 185 W/m² -
1777408693 21.11° C 61% 1007.4 hPa 0 mm - 567 W/m² -
1777408388 21.11° C 61% 1007.4 hPa 0 mm - 511 W/m² -
1777408083 20.56° C 63% 1008 hPa 0 mm - 621 W/m² -
1777407779 20.56° C 63% 1007.7 hPa 0 mm - 146 W/m² -
1777407474 20.56° C 65% 1007.5 hPa 0 mm - 239 W/m² -
1777407169 20.56° C 64% 1007.6 hPa 0 mm - 192 W/m² -
1777406865 20.56° C 64% 1007.5 hPa 0 mm - 221 W/m² -
1777406560 21.67° C 61% 1007.3 hPa 0 mm - 147 W/m² -
1777406256 21.11° C 62% 1007.6 hPa 0 mm - 629 W/m² -
1777405955 21.67° C 61% 1007.8 hPa 0 mm - 382 W/m² -
1777405651 21.67° C 61% 1007.6 hPa 0 mm - 314 W/m² -
1777405349 21.11° C 63% 1007.5 hPa 0 mm - 674 W/m² -
1777405044 21.67° C 61% 1007.7 hPa 0 mm - 742 W/m² -
1777404739 21.67° C 64% 1007.4 hPa 0 mm - 696 W/m² -
1777404435 22.22° C 61% 1007.6 hPa 0 mm - 463 W/m² -
1777404132 21.67° C 61% 1007.7 hPa 0 mm - 756 W/m² -
1777403829 22.22° C 62% 1007.6 hPa 0 mm - 275 W/m² -

* Rain latest hour (hover to see other rain measurements)
** Current wind speed in m/s (hover to see current wind gust speed)